sensor_id;sensor_type;location;lat;lon;timestamp;P1;durP1;ratioP1;P2;durP2;ratioP2
36817;SDS011;22761;51.542;16.450;2024-01-10T00:01:36;84.90;;;37.00;;
36817;SDS011;22761;51.542;16.450;2024-01-10T00:04:04;91.50;;;35.50;;
36817;SDS011;22761;51.542;16.450;2024-01-10T00:06:33;87.70;;;35.20;;
36817;SDS011;22761;51.542;16.450;2024-01-10T00:09:01;94.60;;;37.30;;
36817;SDS011;22761;51.542;16.450;2024-01-10T00:11:30;85.50;;;37.70;;
36817;SDS011;22761;51.542;16.450;2024-01-10T00:14:01;97.70;;;39.00;;
36817;SDS011;22761;51.542;16.450;2024-01-10T00:16:31;93.60;;;39.50;;
36817;SDS011;22761;51.542;16.450;2024-01-10T00:18:59;87.30;;;36.50;;
36817;SDS011;22761;51.542;16.450;2024-01-10T00:21:27;101.80;;;41.90;;
36817;SDS011;22761;51.542;16.450;2024-01-10T00:23:56;98.50;;;39.50;;
36817;SDS011;22761;51.542;16.450;2024-01-10T00:26:25;94.60;;;39.70;;
36817;SDS011;22761;51.542;16.450;2024-01-10T00:28:53;90.20;;;37.20;;
36817;SDS011;22761;51.542;16.450;2024-01-10T00:31:31;100.80;;;41.80;;
36817;SDS011;22761;51.542;16.450;2024-01-10T00:33:59;99.50;;;41.30;;
36817;SDS011;22761;51.542;16.450;2024-01-10T00:36:28;101.50;;;42.30;;
36817;SDS011;22761;51.542;16.450;2024-01-10T00:38:56;105.80;;;41.80;;
36817;SDS011;22761;51.542;16.450;2024-01-10T00:41:24;87.80;;;38.60;;
36817;SDS011;22761;51.542;16.450;2024-01-10T00:43:52;83.60;;;36.80;;
36817;SDS011;22761;51.542;16.450;2024-01-10T00:46:20;93.00;;;36.50;;
36817;SDS011;22761;51.542;16.450;2024-01-10T00:48:49;89.30;;;35.80;;
36817;SDS011;22761;51.542;16.450;2024-01-10T00:51:17;96.20;;;37.60;;
36817;SDS011;22761;51.542;16.450;2024-01-10T00:53:45;87.90;;;34.70;;
36817;SDS011;22761;51.542;16.450;2024-01-10T00:56:14;89.70;;;35.70;;
36817;SDS011;22761;51.542;16.450;2024-01-10T00:58:42;94.20;;;36.60;;
36817;SDS011;22761;51.542;16.450;2024-01-10T01:01:10;90.60;;;37.10;;
36817;SDS011;22761;51.542;16.450;2024-01-10T01:03:38;83.00;;;34.40;;
36817;SDS011;22761;51.542;16.450;2024-01-10T01:06:07;86.80;;;35.20;;
36817;SDS011;22761;51.542;16.450;2024-01-10T01:08:35;85.30;;;35.50;;
36817;SDS011;22761;51.542;16.450;2024-01-10T01:11:04;88.10;;;35.80;;
36817;SDS011;22761;51.542;16.450;2024-01-10T01:13:32;96.00;;;35.50;;
36817;SDS011;22761;51.542;16.450;2024-01-10T01:16:00;86.90;;;34.40;;
36817;SDS011;22761;51.542;16.450;2024-01-10T01:18:29;85.90;;;34.00;;
36817;SDS011;22761;51.542;16.450;2024-01-10T01:20:58;92.00;;;36.30;;
36817;SDS011;22761;51.542;16.450;2024-01-10T01:23:26;87.60;;;35.70;;
36817;SDS011;22761;51.542;16.450;2024-01-10T01:26:08;83.10;;;34.20;;
36817;SDS011;22761;51.542;16.450;2024-01-10T01:28:36;86.10;;;34.50;;
36817;SDS011;22761;51.542;16.450;2024-01-10T01:31:04;82.10;;;34.30;;
36817;SDS011;22761;51.542;16.450;2024-01-10T01:33:33;91.50;;;40.00;;
36817;SDS011;22761;51.542;16.450;2024-01-10T01:36:01;95.60;;;40.10;;
36817;SDS011;22761;51.542;16.450;2024-01-10T01:38:30;86.40;;;36.80;;
36817;SDS011;22761;51.542;16.450;2024-01-10T01:40:58;91.70;;;36.40;;
36817;SDS011;22761;51.542;16.450;2024-01-10T01:43:26;83.90;;;33.70;;
36817;SDS011;22761;51.542;16.450;2024-01-10T01:45:55;70.90;;;32.40;;
36817;SDS011;22761;51.542;16.450;2024-01-10T01:48:24;89.40;;;34.60;;
36817;SDS011;22761;51.542;16.450;2024-01-10T01:50:57;85.50;;;34.40;;
36817;SDS011;22761;51.542;16.450;2024-01-10T01:53:26;93.20;;;38.10;;
36817;SDS011;22761;51.542;16.450;2024-01-10T01:55:57;89.00;;;37.00;;
36817;SDS011;22761;51.542;16.450;2024-01-10T01:58:26;93.40;;;39.10;;
36817;SDS011;22761;51.542;16.450;2024-01-10T02:00:55;98.50;;;39.70;;
36817;SDS011;22761;51.542;16.450;2024-01-10T02:03:23;102.20;;;40.80;;
36817;SDS011;22761;51.542;16.450;2024-01-10T02:05:52;92.90;;;38.00;;
36817;SDS011;22761;51.542;16.450;2024-01-10T02:08:22;89.10;;;37.80;;
36817;SDS011;22761;51.542;16.450;2024-01-10T02:10:50;96.30;;;35.90;;
36817;SDS011;22761;51.542;16.450;2024-01-10T02:13:19;102.70;;;39.30;;
36817;SDS011;22761;51.542;16.450;2024-01-10T02:15:47;100.10;;;37.90;;
36817;SDS011;22761;51.542;16.450;2024-01-10T02:18:15;97.20;;;36.90;;
36817;SDS011;22761;51.542;16.450;2024-01-10T02:20:44;92.90;;;37.10;;
36817;SDS011;22761;51.542;16.450;2024-01-10T02:23:12;92.10;;;37.80;;
36817;SDS011;22761;51.542;16.450;2024-01-10T02:25:41;94.50;;;36.70;;
36817;SDS011;22761;51.542;16.450;2024-01-10T02:28:09;96.20;;;38.50;;
36817;SDS011;22761;51.542;16.450;2024-01-10T02:30:38;89.90;;;36.10;;
36817;SDS011;22761;51.542;16.450;2024-01-10T02:33:06;95.80;;;38.60;;
36817;SDS011;22761;51.542;16.450;2024-01-10T02:35:35;89.40;;;36.70;;
36817;SDS011;22761;51.542;16.450;2024-01-10T02:38:03;98.10;;;36.30;;
36817;SDS011;22761;51.542;16.450;2024-01-10T02:40:31;93.70;;;35.90;;
36817;SDS011;22761;51.542;16.450;2024-01-10T02:43:00;86.10;;;35.30;;
36817;SDS011;22761;51.542;16.450;2024-01-10T02:45:28;83.40;;;35.40;;
36817;SDS011;22761;51.542;16.450;2024-01-10T02:47:56;91.80;;;36.50;;
36817;SDS011;22761;51.542;16.450;2024-01-10T02:50:24;90.90;;;36.20;;
36817;SDS011;22761;51.542;16.450;2024-01-10T02:52:52;89.80;;;38.30;;
36817;SDS011;22761;51.542;16.450;2024-01-10T02:55:21;94.90;;;38.50;;
36817;SDS011;22761;51.542;16.450;2024-01-10T02:57:49;89.90;;;38.90;;
36817;SDS011;22761;51.542;16.450;2024-01-10T03:00:17;107.50;;;42.50;;
36817;SDS011;22761;51.542;16.450;2024-01-10T03:02:45;112.40;;;43.50;;
36817;SDS011;22761;51.542;16.450;2024-01-10T03:05:14;107.00;;;43.50;;
36817;SDS011;22761;51.542;16.450;2024-01-10T03:07:42;114.20;;;45.60;;
36817;SDS011;22761;51.542;16.450;2024-01-10T03:10:11;105.70;;;42.80;;
36817;SDS011;22761;51.542;16.450;2024-01-10T03:12:39;106.90;;;42.40;;
36817;SDS011;22761;51.542;16.450;2024-01-10T03:15:08;96.30;;;39.90;;
36817;SDS011;22761;51.542;16.450;2024-01-10T03:17:37;99.10;;;41.40;;
36817;SDS011;22761;51.542;16.450;2024-01-10T03:20:06;104.50;;;41.00;;
36817;SDS011;22761;51.542;16.450;2024-01-10T03:22:36;95.70;;;39.10;;
36817;SDS011;22761;51.542;16.450;2024-01-10T03:25:05;96.90;;;39.60;;
36817;SDS011;22761;51.542;16.450;2024-01-10T03:27:33;89.10;;;39.60;;
36817;SDS011;22761;51.542;16.450;2024-01-10T03:30:02;90.90;;;37.90;;
36817;SDS011;22761;51.542;16.450;2024-01-10T03:32:30;93.50;;;38.10;;
36817;SDS011;22761;51.542;16.450;2024-01-10T03:34:58;93.10;;;39.00;;
36817;SDS011;22761;51.542;16.450;2024-01-10T03:37:27;95.10;;;37.90;;
36817;SDS011;22761;51.542;16.450;2024-01-10T03:39:55;84.40;;;35.80;;
36817;SDS011;22761;51.542;16.450;2024-01-10T03:42:23;92.60;;;38.20;;
36817;SDS011;22761;51.542;16.450;2024-01-10T03:44:51;95.60;;;37.60;;
36817;SDS011;22761;51.542;16.450;2024-01-10T03:47:19;105.10;;;40.10;;
36817;SDS011;22761;51.542;16.450;2024-01-10T03:49:48;100.60;;;38.30;;
36817;SDS011;22761;51.542;16.450;2024-01-10T03:52:16;96.10;;;38.70;;
36817;SDS011;22761;51.542;16.450;2024-01-10T03:54:44;92.20;;;39.80;;
36817;SDS011;22761;51.542;16.450;2024-01-10T03:57:12;92.10;;;39.90;;
36817;SDS011;22761;51.542;16.450;2024-01-10T03:59:40;96.70;;;37.50;;
36817;SDS011;22761;51.542;16.450;2024-01-10T04:02:08;99.00;;;39.90;;
36817;SDS011;22761;51.542;16.450;2024-01-10T04:04:37;94.90;;;37.20;;
36817;SDS011;22761;51.542;16.450;2024-01-10T04:07:06;97.20;;;38.70;;
36817;SDS011;22761;51.542;16.450;2024-01-10T04:09:35;93.30;;;38.10;;
36817;SDS011;22761;51.542;16.450;2024-01-10T04:12:03;107.40;;;40.70;;
36817;SDS011;22761;51.542;16.450;2024-01-10T04:14:31;100.80;;;41.00;;
36817;SDS011;22761;51.542;16.450;2024-01-10T04:17:00;109.70;;;43.20;;
36817;SDS011;22761;51.542;16.450;2024-01-10T04:19:29;109.70;;;43.50;;
36817;SDS011;22761;51.542;16.450;2024-01-10T04:21:57;108.50;;;43.00;;
36817;SDS011;22761;51.542;16.450;2024-01-10T04:24:26;123.60;;;46.20;;
36817;SDS011;22761;51.542;16.450;2024-01-10T04:26:54;112.10;;;46.00;;
36817;SDS011;22761;51.542;16.450;2024-01-10T04:29:22;110.40;;;42.70;;
36817;SDS011;22761;51.542;16.450;2024-01-10T04:31:51;103.10;;;42.80;;
36817;SDS011;22761;51.542;16.450;2024-01-10T04:34:19;103.90;;;43.50;;
36817;SDS011;22761;51.542;16.450;2024-01-10T04:36:47;109.60;;;43.70;;
36817;SDS011;22761;51.542;16.450;2024-01-10T04:39:15;110.40;;;42.40;;
36817;SDS011;22761;51.542;16.450;2024-01-10T04:41:43;114.80;;;44.10;;
36817;SDS011;22761;51.542;16.450;2024-01-10T04:44:12;111.40;;;43.60;;
36817;SDS011;22761;51.542;16.450;2024-01-10T04:46:40;103.90;;;42.00;;
36817;SDS011;22761;51.542;16.450;2024-01-10T04:49:09;103.30;;;42.20;;
36817;SDS011;22761;51.542;16.450;2024-01-10T04:51:38;106.90;;;40.90;;
36817;SDS011;22761;51.542;16.450;2024-01-10T04:54:07;105.50;;;42.30;;
36817;SDS011;22761;51.542;16.450;2024-01-10T04:56:36;106.60;;;41.20;;
36817;SDS011;22761;51.542;16.450;2024-01-10T04:59:05;109.30;;;41.40;;
36817;SDS011;22761;51.542;16.450;2024-01-10T05:01:34;105.40;;;40.40;;
36817;SDS011;22761;51.542;16.450;2024-01-10T05:04:03;95.20;;;41.20;;
36817;SDS011;22761;51.542;16.450;2024-01-10T05:06:31;103.70;;;39.80;;
36817;SDS011;22761;51.542;16.450;2024-01-10T05:08:59;99.00;;;40.20;;
36817;SDS011;22761;51.542;16.450;2024-01-10T05:11:28;110.60;;;42.20;;
36817;SDS011;22761;51.542;16.450;2024-01-10T05:13:56;101.30;;;41.00;;
36817;SDS011;22761;51.542;16.450;2024-01-10T05:16:25;108.80;;;44.80;;
36817;SDS011;22761;51.542;16.450;2024-01-10T05:18:53;109.10;;;44.10;;
36817;SDS011;22761;51.542;16.450;2024-01-10T05:21:21;110.70;;;42.20;;
36817;SDS011;22761;51.542;16.450;2024-01-10T05:23:49;109.90;;;42.40;;
36817;SDS011;22761;51.542;16.450;2024-01-10T05:26:17;117.30;;;46.80;;
36817;SDS011;22761;51.542;16.450;2024-01-10T05:28:46;122.30;;;48.50;;
36817;SDS011;22761;51.542;16.450;2024-01-10T05:31:14;118.70;;;50.50;;
36817;SDS011;22761;51.542;16.450;2024-01-10T05:33:43;114.90;;;50.90;;
36817;SDS011;22761;51.542;16.450;2024-01-10T05:36:11;119.80;;;49.00;;
36817;SDS011;22761;51.542;16.450;2024-01-10T05:38:39;122.50;;;48.60;;
36817;SDS011;22761;51.542;16.450;2024-01-10T05:41:10;111.20;;;47.30;;
36817;SDS011;22761;51.542;16.450;2024-01-10T05:43:39;118.40;;;48.70;;
36817;SDS011;22761;51.542;16.450;2024-01-10T05:46:07;117.10;;;48.20;;
36817;SDS011;22761;51.542;16.450;2024-01-10T05:48:35;160.00;;;59.70;;
36817;SDS011;22761;51.542;16.450;2024-01-10T05:51:03;397.90;;;122.70;;
36817;SDS011;22761;51.542;16.450;2024-01-10T05:53:32;264.20;;;84.70;;
36817;SDS011;22761;51.542;16.450;2024-01-10T05:56:01;231.80;;;77.30;;
36817;SDS011;22761;51.542;16.450;2024-01-10T05:58:29;199.40;;;69.30;;
36817;SDS011;22761;51.542;16.450;2024-01-10T06:00:57;203.90;;;65.20;;
36817;SDS011;22761;51.542;16.450;2024-01-10T06:03:25;184.10;;;61.60;;
36817;SDS011;22761;51.542;16.450;2024-01-10T06:05:54;165.40;;;57.50;;
36817;SDS011;22761;51.542;16.450;2024-01-10T06:08:22;182.20;;;60.40;;
36817;SDS011;22761;51.542;16.450;2024-01-10T06:10:53;159.80;;;53.50;;
36817;SDS011;22761;51.542;16.450;2024-01-10T06:13:22;154.10;;;52.70;;
36817;SDS011;22761;51.542;16.450;2024-01-10T06:15:50;162.30;;;56.70;;
36817;SDS011;22761;51.542;16.450;2024-01-10T06:18:18;213.70;;;69.80;;
36817;SDS011;22761;51.542;16.450;2024-01-10T06:20:47;218.10;;;66.80;;
36817;SDS011;22761;51.542;16.450;2024-01-10T06:23:15;162.40;;;53.80;;
36817;SDS011;22761;51.542;16.450;2024-01-10T06:25:43;102.70;;;41.60;;
36817;SDS011;22761;51.542;16.450;2024-01-10T06:28:12;120.50;;;41.50;;
36817;SDS011;22761;51.542;16.450;2024-01-10T06:30:40;121.20;;;44.30;;
36817;SDS011;22761;51.542;16.450;2024-01-10T06:33:08;102.20;;;40.20;;
36817;SDS011;22761;51.542;16.450;2024-01-10T06:35:36;100.90;;;40.40;;
36817;SDS011;22761;51.542;16.450;2024-01-10T06:38:05;102.40;;;39.80;;
36817;SDS011;22761;51.542;16.450;2024-01-10T06:40:33;104.40;;;41.80;;
36817;SDS011;22761;51.542;16.450;2024-01-10T06:43:01;101.30;;;40.10;;
36817;SDS011;22761;51.542;16.450;2024-01-10T06:45:30;103.10;;;40.50;;
36817;SDS011;22761;51.542;16.450;2024-01-10T06:47:58;105.30;;;44.00;;
36817;SDS011;22761;51.542;16.450;2024-01-10T06:50:26;111.60;;;42.20;;
36817;SDS011;22761;51.542;16.450;2024-01-10T06:52:54;147.70;;;54.20;;
36817;SDS011;22761;51.542;16.450;2024-01-10T06:55:23;151.50;;;56.10;;
36817;SDS011;22761;51.542;16.450;2024-01-10T06:57:52;126.00;;;48.10;;
36817;SDS011;22761;51.542;16.450;2024-01-10T07:00:21;121.20;;;50.40;;
36817;SDS011;22761;51.542;16.450;2024-01-10T07:02:50;166.70;;;63.70;;
36817;SDS011;22761;51.542;16.450;2024-01-10T07:05:18;168.10;;;66.20;;
36817;SDS011;22761;51.542;16.450;2024-01-10T07:07:48;170.00;;;67.90;;
36817;SDS011;22761;51.542;16.450;2024-01-10T07:10:17;147.50;;;57.20;;
36817;SDS011;22761;51.542;16.450;2024-01-10T07:12:46;141.80;;;54.90;;
36817;SDS011;22761;51.542;16.450;2024-01-10T07:15:15;147.80;;;56.60;;
36817;SDS011;22761;51.542;16.450;2024-01-10T07:17:43;156.50;;;65.20;;
36817;SDS011;22761;51.542;16.450;2024-01-10T07:20:12;135.20;;;57.30;;
36817;SDS011;22761;51.542;16.450;2024-01-10T07:22:41;138.00;;;53.60;;
36817;SDS011;22761;51.542;16.450;2024-01-10T07:25:12;151.20;;;63.90;;
36817;SDS011;22761;51.542;16.450;2024-01-10T07:27:42;179.60;;;77.50;;
36817;SDS011;22761;51.542;16.450;2024-01-10T07:30:11;126.50;;;55.60;;
36817;SDS011;22761;51.542;16.450;2024-01-10T07:32:43;122.80;;;50.90;;
36817;SDS011;22761;51.542;16.450;2024-01-10T07:35:12;131.20;;;57.10;;
36817;SDS011;22761;51.542;16.450;2024-01-10T07:37:44;115.60;;;47.90;;
36817;SDS011;22761;51.542;16.450;2024-01-10T07:40:12;117.60;;;44.60;;
36817;SDS011;22761;51.542;16.450;2024-01-10T07:42:42;106.90;;;45.70;;
36817;SDS011;22761;51.542;16.450;2024-01-10T07:45:10;106.80;;;44.20;;
36817;SDS011;22761;51.542;16.450;2024-01-10T07:47:39;119.70;;;47.60;;
36817;SDS011;22761;51.542;16.450;2024-01-10T07:50:08;110.40;;;44.50;;
36817;SDS011;22761;51.542;16.450;2024-01-10T07:52:37;105.40;;;44.70;;
36817;SDS011;22761;51.542;16.450;2024-01-10T07:55:06;109.10;;;45.50;;
36817;SDS011;22761;51.542;16.450;2024-01-10T07:57:36;106.90;;;43.60;;
36817;SDS011;22761;51.542;16.450;2024-01-10T08:00:05;119.00;;;47.80;;
36817;SDS011;22761;51.542;16.450;2024-01-10T08:02:38;116.20;;;47.00;;
36817;SDS011;22761;51.542;16.450;2024-01-10T08:05:07;119.90;;;47.70;;
36817;SDS011;22761;51.542;16.450;2024-01-10T08:07:41;115.10;;;47.30;;
36817;SDS011;22761;51.542;16.450;2024-01-10T08:10:09;121.90;;;51.00;;
36817;SDS011;22761;51.542;16.450;2024-01-10T08:12:38;118.30;;;48.70;;
36817;SDS011;22761;51.542;16.450;2024-01-10T08:15:12;119.20;;;50.00;;
36817;SDS011;22761;51.542;16.450;2024-01-10T08:17:42;113.90;;;51.00;;
36817;SDS011;22761;51.542;16.450;2024-01-10T08:20:11;121.80;;;50.80;;
36817;SDS011;22761;51.542;16.450;2024-01-10T08:22:43;118.40;;;51.00;;
36817;SDS011;22761;51.542;16.450;2024-01-10T08:25:12;130.80;;;56.10;;
36817;SDS011;22761;51.542;16.450;2024-01-10T08:27:43;107.00;;;45.80;;
36817;SDS011;22761;51.542;16.450;2024-01-10T08:30:13;107.60;;;42.90;;
36817;SDS011;22761;51.542;16.450;2024-01-10T08:32:41;96.40;;;42.70;;
36817;SDS011;22761;51.542;16.450;2024-01-10T08:35:10;144.50;;;61.90;;
36817;SDS011;22761;51.542;16.450;2024-01-10T08:37:39;140.50;;;57.70;;
36817;SDS011;22761;51.542;16.450;2024-01-10T08:40:11;115.10;;;50.50;;
36817;SDS011;22761;51.542;16.450;2024-01-10T08:42:42;116.10;;;48.20;;
36817;SDS011;22761;51.542;16.450;2024-01-10T08:45:11;117.60;;;47.40;;
36817;SDS011;22761;51.542;16.450;2024-01-10T08:47:39;116.80;;;51.30;;
36817;SDS011;22761;51.542;16.450;2024-01-10T08:50:08;113.90;;;48.70;;
36817;SDS011;22761;51.542;16.450;2024-01-10T08:52:37;112.90;;;50.30;;
36817;SDS011;22761;51.542;16.450;2024-01-10T08:55:06;128.30;;;57.20;;
36817;SDS011;22761;51.542;16.450;2024-01-10T08:57:40;130.30;;;61.00;;
36817;SDS011;22761;51.542;16.450;2024-01-10T09:00:09;126.10;;;55.60;;
36817;SDS011;22761;51.542;16.450;2024-01-10T09:02:40;121.70;;;52.90;;
36817;SDS011;22761;51.542;16.450;2024-01-10T09:05:08;148.60;;;58.50;;
36817;SDS011;22761;51.542;16.450;2024-01-10T09:07:39;143.30;;;55.10;;
36817;SDS011;22761;51.542;16.450;2024-01-10T09:10:07;149.70;;;55.40;;
36817;SDS011;22761;51.542;16.450;2024-01-10T09:12:36;123.70;;;48.10;;
36817;SDS011;22761;51.542;16.450;2024-01-10T09:15:05;122.90;;;50.20;;
36817;SDS011;22761;51.542;16.450;2024-01-10T09:17:36;134.20;;;55.90;;
36817;SDS011;22761;51.542;16.450;2024-01-10T09:20:04;111.60;;;49.10;;
36817;SDS011;22761;51.542;16.450;2024-01-10T09:22:33;111.50;;;47.40;;
36817;SDS011;22761;51.542;16.450;2024-01-10T09:25:02;107.30;;;47.90;;
36817;SDS011;22761;51.542;16.450;2024-01-10T09:27:33;110.90;;;48.80;;
36817;SDS011;22761;51.542;16.450;2024-01-10T09:30:02;114.90;;;49.80;;
36817;SDS011;22761;51.542;16.450;2024-01-10T09:32:31;107.30;;;46.80;;
36817;SDS011;22761;51.542;16.450;2024-01-10T09:35:00;102.30;;;45.70;;
36817;SDS011;22761;51.542;16.450;2024-01-10T09:37:29;103.60;;;46.20;;
36817;SDS011;22761;51.542;16.450;2024-01-10T09:39:57;103.10;;;45.70;;
36817;SDS011;22761;51.542;16.450;2024-01-10T09:42:26;107.20;;;45.00;;
36817;SDS011;22761;51.542;16.450;2024-01-10T09:44:57;101.70;;;45.50;;
36817;SDS011;22761;51.542;16.450;2024-01-10T09:47:26;100.00;;;45.10;;
36817;SDS011;22761;51.542;16.450;2024-01-10T09:49:54;100.70;;;45.60;;
36817;SDS011;22761;51.542;16.450;2024-01-10T09:52:24;107.70;;;46.10;;
36817;SDS011;22761;51.542;16.450;2024-01-10T09:54:54;125.60;;;53.50;;
36817;SDS011;22761;51.542;16.450;2024-01-10T09:57:24;95.60;;;46.00;;
36817;SDS011;22761;51.542;16.450;2024-01-10T09:59:53;103.90;;;48.60;;
36817;SDS011;22761;51.542;16.450;2024-01-10T10:02:24;108.50;;;49.50;;
36817;SDS011;22761;51.542;16.450;2024-01-10T10:05:02;101.60;;;48.00;;
36817;SDS011;22761;51.542;16.450;2024-01-10T10:07:42;110.40;;;52.40;;
36817;SDS011;22761;51.542;16.450;2024-01-10T10:10:11;108.40;;;50.60;;
36817;SDS011;22761;51.542;16.450;2024-01-10T10:12:50;105.20;;;49.00;;
36817;SDS011;22761;51.542;16.450;2024-01-10T10:15:21;109.50;;;50.40;;
36817;SDS011;22761;51.542;16.450;2024-01-10T10:17:50;106.90;;;48.60;;
36817;SDS011;22761;51.542;16.450;2024-01-10T10:20:28;101.00;;;48.30;;
36817;SDS011;22761;51.542;16.450;2024-01-10T10:23:05;103.40;;;50.00;;
36817;SDS011;22761;51.542;16.450;2024-01-10T10:25:35;104.10;;;50.80;;
36817;SDS011;22761;51.542;16.450;2024-01-10T10:28:06;101.40;;;48.10;;
36817;SDS011;22761;51.542;16.450;2024-01-10T10:30:37;101.50;;;49.20;;
36817;SDS011;22761;51.542;16.450;2024-01-10T10:33:05;97.40;;;48.40;;
36817;SDS011;22761;51.542;16.450;2024-01-10T10:35:36;96.20;;;47.90;;
36817;SDS011;22761;51.542;16.450;2024-01-10T10:38:11;107.00;;;50.30;;
36817;SDS011;22761;51.542;16.450;2024-01-10T10:40:39;105.20;;;48.80;;
36817;SDS011;22761;51.542;16.450;2024-01-10T10:43:09;95.70;;;47.60;;
36817;SDS011;22761;51.542;16.450;2024-01-10T10:45:46;91.30;;;45.10;;
36817;SDS011;22761;51.542;16.450;2024-01-10T10:48:20;97.40;;;48.10;;
36817;SDS011;22761;51.542;16.450;2024-01-10T10:50:59;89.80;;;46.90;;
36817;SDS011;22761;51.542;16.450;2024-01-10T10:53:35;90.70;;;48.40;;
36817;SDS011;22761;51.542;16.450;2024-01-10T10:56:05;96.40;;;47.70;;
36817;SDS011;22761;51.542;16.450;2024-01-10T10:58:35;87.70;;;45.10;;
36817;SDS011;22761;51.542;16.450;2024-01-10T11:01:06;92.90;;;45.60;;
36817;SDS011;22761;51.542;16.450;2024-01-10T11:03:36;95.50;;;45.40;;
36817;SDS011;22761;51.542;16.450;2024-01-10T11:06:08;91.50;;;44.10;;
36817;SDS011;22761;51.542;16.450;2024-01-10T11:11:35;90.80;;;45.70;;
36817;SDS011;22761;51.542;16.450;2024-01-10T11:14:19;85.20;;;43.80;;
36817;SDS011;22761;51.542;16.450;2024-01-10T11:20:14;90.50;;;46.60;;
36817;SDS011;22761;51.542;16.450;2024-01-10T11:25:43;92.80;;;49.20;;
36817;SDS011;22761;51.542;16.450;2024-01-10T11:28:12;86.50;;;45.40;;
36817;SDS011;22761;51.542;16.450;2024-01-10T11:30:50;90.40;;;46.50;;
36817;SDS011;22761;51.542;16.450;2024-01-10T11:33:31;86.00;;;45.40;;
36817;SDS011;22761;51.542;16.450;2024-01-10T11:46:38;89.60;;;51.40;;
36817;SDS011;22761;51.542;16.450;2024-01-10T11:49:10;94.70;;;51.70;;
36817;SDS011;22761;51.542;16.450;2024-01-10T11:51:43;86.80;;;49.50;;
36817;SDS011;22761;51.542;16.450;2024-01-10T11:57:18;87.40;;;47.40;;
36817;SDS011;22761;51.542;16.450;2024-01-10T11:59:51;82.00;;;46.10;;
36817;SDS011;22761;51.542;16.450;2024-01-10T12:02:21;85.90;;;46.80;;
36817;SDS011;22761;51.542;16.450;2024-01-10T12:04:52;83.70;;;47.20;;
36817;SDS011;22761;51.542;16.450;2024-01-10T12:07:21;85.80;;;47.50;;
36817;SDS011;22761;51.542;16.450;2024-01-10T12:09:49;85.40;;;47.10;;
36817;SDS011;22761;51.542;16.450;2024-01-10T12:12:17;92.30;;;49.80;;
36817;SDS011;22761;51.542;16.450;2024-01-10T12:14:46;82.60;;;46.60;;
36817;SDS011;22761;51.542;16.450;2024-01-10T12:17:15;89.70;;;48.90;;
36817;SDS011;22761;51.542;16.450;2024-01-10T12:19:44;92.60;;;48.90;;
36817;SDS011;22761;51.542;16.450;2024-01-10T12:22:16;87.90;;;49.10;;
36817;SDS011;22761;51.542;16.450;2024-01-10T12:24:48;82.40;;;46.20;;
36817;SDS011;22761;51.542;16.450;2024-01-10T12:27:19;90.70;;;48.40;;
36817;SDS011;22761;51.542;16.450;2024-01-10T12:29:49;95.40;;;49.90;;
36817;SDS011;22761;51.542;16.450;2024-01-10T12:32:21;91.50;;;48.30;;
36817;SDS011;22761;51.542;16.450;2024-01-10T12:34:54;94.70;;;50.10;;
36817;SDS011;22761;51.542;16.450;2024-01-10T12:37:27;92.50;;;50.30;;
36817;SDS011;22761;51.542;16.450;2024-01-10T12:39:55;96.80;;;51.80;;
36817;SDS011;22761;51.542;16.450;2024-01-10T12:42:25;91.20;;;50.00;;
36817;SDS011;22761;51.542;16.450;2024-01-10T12:44:53;90.50;;;48.20;;
36817;SDS011;22761;51.542;16.450;2024-01-10T12:47:21;93.90;;;50.00;;
36817;SDS011;22761;51.542;16.450;2024-01-10T12:49:52;85.40;;;47.50;;
36817;SDS011;22761;51.542;16.450;2024-01-10T12:52:22;92.30;;;49.00;;
36817;SDS011;22761;51.542;16.450;2024-01-10T12:54:53;85.70;;;47.10;;
36817;SDS011;22761;51.542;16.450;2024-01-10T12:57:21;88.00;;;47.10;;
36817;SDS011;22761;51.542;16.450;2024-01-10T12:59:51;89.60;;;48.20;;
36817;SDS011;22761;51.542;16.450;2024-01-10T13:02:20;89.80;;;47.10;;
36817;SDS011;22761;51.542;16.450;2024-01-10T13:04:48;90.60;;;47.30;;
36817;SDS011;22761;51.542;16.450;2024-01-10T13:07:16;93.30;;;49.10;;
36817;SDS011;22761;51.542;16.450;2024-01-10T13:09:44;94.20;;;49.40;;
36817;SDS011;22761;51.542;16.450;2024-01-10T13:12:12;92.10;;;47.10;;
36817;SDS011;22761;51.542;16.450;2024-01-10T13:14:41;90.00;;;47.00;;
36817;SDS011;22761;51.542;16.450;2024-01-10T13:17:09;89.90;;;48.00;;
36817;SDS011;22761;51.542;16.450;2024-01-10T13:19:38;95.10;;;49.30;;
36817;SDS011;22761;51.542;16.450;2024-01-10T13:22:06;90.60;;;49.80;;
36817;SDS011;22761;51.542;16.450;2024-01-10T13:24:36;91.10;;;48.40;;
36817;SDS011;22761;51.542;16.450;2024-01-10T13:27:04;96.40;;;47.80;;
36817;SDS011;22761;51.542;16.450;2024-01-10T13:29:32;93.60;;;48.90;;
36817;SDS011;22761;51.542;16.450;2024-01-10T13:32:06;90.50;;;46.20;;
36817;SDS011;22761;51.542;16.450;2024-01-10T13:34:34;89.30;;;46.70;;
36817;SDS011;22761;51.542;16.450;2024-01-10T13:37:03;99.90;;;51.50;;
36817;SDS011;22761;51.542;16.450;2024-01-10T13:39:32;92.30;;;47.70;;
36817;SDS011;22761;51.542;16.450;2024-01-10T13:42:01;97.50;;;52.00;;
36817;SDS011;22761;51.542;16.450;2024-01-10T13:44:29;102.30;;;55.10;;
36817;SDS011;22761;51.542;16.450;2024-01-10T13:46:57;101.10;;;50.70;;
36817;SDS011;22761;51.542;16.450;2024-01-10T13:49:25;97.70;;;49.70;;
36817;SDS011;22761;51.542;16.450;2024-01-10T13:51:54;96.00;;;49.60;;
36817;SDS011;22761;51.542;16.450;2024-01-10T13:54:22;98.50;;;52.30;;
36817;SDS011;22761;51.542;16.450;2024-01-10T13:56:51;90.30;;;48.10;;
36817;SDS011;22761;51.542;16.450;2024-01-10T13:59:19;95.40;;;49.50;;
36817;SDS011;22761;51.542;16.450;2024-01-10T14:01:47;97.30;;;50.70;;
36817;SDS011;22761;51.542;16.450;2024-01-10T14:04:16;99.00;;;53.60;;
36817;SDS011;22761;51.542;16.450;2024-01-10T14:06:44;104.20;;;53.70;;
36817;SDS011;22761;51.542;16.450;2024-01-10T14:09:12;95.70;;;51.70;;
36817;SDS011;22761;51.542;16.450;2024-01-10T14:11:40;99.30;;;53.00;;
36817;SDS011;22761;51.542;16.450;2024-01-10T14:14:09;103.10;;;52.70;;
36817;SDS011;22761;51.542;16.450;2024-01-10T14:16:37;99.90;;;53.10;;
36817;SDS011;22761;51.542;16.450;2024-01-10T14:19:05;102.40;;;50.50;;
36817;SDS011;22761;51.542;16.450;2024-01-10T14:21:33;93.80;;;49.90;;
36817;SDS011;22761;51.542;16.450;2024-01-10T14:24:02;102.70;;;51.30;;
36817;SDS011;22761;51.542;16.450;2024-01-10T14:26:30;106.00;;;52.40;;
36817;SDS011;22761;51.542;16.450;2024-01-10T14:28:59;104.00;;;52.70;;
36817;SDS011;22761;51.542;16.450;2024-01-10T14:31:27;112.90;;;54.10;;
36817;SDS011;22761;51.542;16.450;2024-01-10T14:34:16;150.00;;;69.10;;
36817;SDS011;22761;51.542;16.450;2024-01-10T14:36:44;119.50;;;56.80;;
36817;SDS011;22761;51.542;16.450;2024-01-10T14:39:13;102.60;;;50.70;;